Time;durP1;ratioP1;P1;durP2;ratioP2;P2;SDS_P1;SDS_P2;PMS_P1;PMS_P2;Temp;Humidity;BMP_temperature;BMP_pressure;BME280_temperature;BME280_humidity;BME280_pressure;Samples;Min_cycle;Max_cycle;Signal;HPM_P1;HPM_P2
2022/11/20 00:01:15;;;;;;;15.13;8.33;;;-0.70;99.90;;;;;;5014812;28;20180;-83
2022/11/20 00:03:41;;;;;;;16.13;8.73;;;-0.70;99.90;;;;;;5014777;28;20590;-83
2022/11/20 00:06:10;;;;;;;13.53;8.67;;;-0.70;99.90;;;;;;5014911;28;20535;-84
2022/11/20 00:08:36;;;;;;;12.07;7.97;;;-0.70;99.90;;;;;;5016173;28;20167;-83
2022/11/20 00:11:16;;;;;;;12.93;8.30;;;-0.70;99.90;;;;;;5014689;28;20190;-83
2022/11/20 00:13:46;;;;;;;13.63;9.03;;;-0.70;99.90;;;;;;5015794;28;20178;-84
2022/11/20 00:16:14;;;;;;;14.77;8.57;;;-0.70;99.90;;;;;;5014894;28;20214;-84
2022/11/20 00:18:39;;;;;;;12.73;8.77;;;-0.70;99.90;;;;;;5014616;28;20175;-84
2022/11/20 00:21:17;;;;;;;13.50;8.23;;;-0.70;99.90;;;;;;5014440;28;20179;-83
2022/11/20 00:23:43;;;;;;;14.23;8.53;;;-0.70;99.90;;;;;;5014193;28;20217;-83
2022/11/20 00:26:14;;;;;;;14.23;9.00;;;-0.70;99.90;;;;;;5015378;28;20180;-83
2022/11/20 00:28:41;;;;;;;14.17;7.97;;;-0.70;99.90;;;;;;5014218;28;20179;-83
2022/11/20 00:31:11;;;;;;;13.23;8.50;;;-0.70;99.90;;;;;;5014063;28;20222;-82
2022/11/20 00:33:37;;;;;;;13.00;7.57;;;-0.70;99.90;;;;;;5014028;28;20168;-83
2022/11/20 00:36:08;;;;;;;13.70;8.60;;;-0.70;99.90;;;;;;5013800;28;20231;-83
2022/11/20 00:38:34;;;;;;;13.07;8.13;;;-0.70;99.90;;;;;;5014033;28;20172;-84
2022/11/20 00:41:04;;;;;;;17.30;8.73;;;-0.70;99.90;;;;;;5013929;28;20179;-83
2022/11/20 00:43:30;;;;;;;13.40;8.80;;;-0.70;99.90;;;;;;5012968;28;20179;-83
2022/11/20 00:45:58;;;;;;;12.33;8.03;;;-0.70;99.90;;;;;;5014009;28;20176;-83
2022/11/20 00:48:24;;;;;;;13.60;8.77;;;-0.80;99.90;;;;;;5013900;28;20183;-84
2022/11/20 00:50:49;;;;;;;13.90;8.97;;;-0.70;99.90;;;;;;5013825;28;20625;-84
2022/11/20 00:53:15;;;;;;;12.30;8.23;;;-0.80;99.90;;;;;;5013731;28;20253;-83
2022/11/20 00:55:41;;;;;;;13.17;8.77;;;-0.70;99.90;;;;;;5014893;28;20188;-83
2022/11/20 00:58:06;;;;;;;13.67;8.17;;;-0.70;99.90;;;;;;5013824;28;20183;-83
2022/11/20 01:00:32;;;;;;;13.90;8.70;;;-0.70;99.90;;;;;;5013654;28;20179;-83
2022/11/20 01:02:58;;;;;;;13.40;8.67;;;-0.70;99.90;;;;;;5013909;28;20180;-83
2022/11/20 01:05:23;;;;;;;12.90;9.33;;;-0.70;99.90;;;;;;5013438;28;20207;-83
2022/11/20 01:07:49;;;;;;;13.90;8.43;;;-0.70;99.90;;;;;;5013476;28;20178;-84
2022/11/20 01:10:15;;;;;;;14.37;8.90;;;-0.70;99.90;;;;;;5014752;28;20676;-83
2022/11/20 01:13:36;;;;;;;16.77;9.83;;;-0.70;99.90;;;;;;5013669;28;20175;-84
2022/11/20 01:15:33;;;;;;;11.13;7.83;;;-0.70;99.90;;;;;;5014570;28;20226;-83
2022/11/20 01:17:58;;;;;;;13.57;8.40;;;-0.70;99.90;;;;;;5013298;28;20179;-83
2022/11/20 01:20:24;;;;;;;13.07;8.57;;;-0.70;99.90;;;;;;5013579;28;20270;-83
2022/11/20 01:22:50;;;;;;;12.97;8.27;;;-0.70;99.90;;;;;;5013395;28;20189;-83
2022/11/20 01:25:15;;;;;;;15.60;8.03;;;-0.70;99.90;;;;;;5013242;28;20638;-83
2022/11/20 01:27:41;;;;;;;13.33;8.63;;;-0.70;99.90;;;;;;5013336;28;20190;-84
2022/11/20 01:30:07;;;;;;;12.87;7.93;;;-0.70;99.90;;;;;;5013305;28;20274;-83
2022/11/20 01:32:33;;;;;;;13.87;8.57;;;-0.60;99.90;;;;;;5013539;28;20608;-84
2022/11/20 01:34:59;;;;;;;13.40;8.87;;;-0.70;99.90;;;;;;5014332;28;20179;-84
2022/11/20 01:37:24;;;;;;;13.23;8.23;;;-0.60;99.90;;;;;;5014000;28;20608;-84
2022/11/20 01:39:50;;;;;;;13.90;8.60;;;-0.60;99.90;;;;;;5013012;28;20179;-84
2022/11/20 01:45:01;;;;;;;11.50;7.00;;;-0.60;99.90;;;;;;5014373;28;20249;-83
2022/11/20 01:47:44;;;;;;;13.63;8.60;;;-0.60;99.90;;;;;;5012876;28;20182;-83
2022/11/20 01:50:24;;;;;;;11.27;7.93;;;-0.60;99.90;;;;;;5013127;28;20184;-84
2022/11/20 01:53:00;;;;;;;14.17;7.27;;;-0.60;99.90;;;;;;5013025;28;20171;-83
2022/11/20 01:55:31;;;;;;;12.07;7.73;;;-0.60;99.90;;;;;;5012670;28;20225;-83
2022/11/20 01:57:57;;;;;;;9.97;7.27;;;-0.60;99.90;;;;;;5012911;28;20194;-83
2022/11/20 02:00:23;;;;;;;12.60;8.03;;;-0.60;99.90;;;;;;5014098;28;20266;-83
2022/11/20 02:02:56;;;;;;;13.53;8.40;;;-0.60;99.90;;;;;;5012725;28;20187;-83
2022/11/20 02:05:43;;;;;;;13.20;7.67;;;-0.60;99.90;;;;;;5012881;28;20222;-84
2022/11/20 02:08:09;;;;;;;10.73;7.33;;;-0.60;99.90;;;;;;5012712;28;20590;-83
2022/11/20 02:10:35;;;;;;;14.33;8.67;;;-0.60;99.90;;;;;;5014227;28;20262;-83
2022/11/20 02:15:46;;;;;;;13.53;7.93;;;-0.60;99.90;;;;;;5460421;22;20198;-83
2022/11/20 02:18:14;;;;;;;11.87;7.40;;;-0.60;99.90;;;;;;4973576;28;20189;-84
2022/11/20 02:20:43;;;;;;;13.17;7.77;;;-0.60;99.90;;;;;;5004506;28;20190;-83
2022/11/20 02:23:14;;;;;;;12.37;7.90;;;-0.60;99.90;;;;;;4995713;28;20207;-83
2022/11/20 02:25:42;;;;;;;11.73;8.07;;;-0.60;99.90;;;;;;4976945;28;20644;-83
2022/11/20 02:28:09;;;;;;;10.83;7.63;;;-0.60;99.90;;;;;;4993858;28;20175;-84
2022/11/20 02:30:35;;;;;;;11.83;7.47;;;-0.70;99.90;;;;;;4993716;28;20187;-83
2022/11/20 02:33:00;;;;;;;12.90;7.63;;;-0.70;99.90;;;;;;4992437;28;20176;-83
2022/11/20 02:35:26;;;;;;;11.57;7.40;;;-0.70;99.90;;;;;;4994002;28;20179;-82
2022/11/20 02:37:55;;;;;;;13.23;7.73;;;-0.70;99.90;;;;;;4992862;28;20182;-84
2022/11/20 02:40:21;;;;;;;11.23;7.40;;;-0.70;99.90;;;;;;4992707;28;20485;-83
2022/11/20 02:42:47;;;;;;;12.50;7.63;;;-0.70;99.90;;;;;;4991980;28;20184;-83
2022/11/20 02:45:13;;;;;;;12.70;7.00;;;-0.70;99.90;;;;;;4992819;28;20222;-83
2022/11/20 02:47:39;;;;;;;12.00;7.20;;;-0.70;99.90;;;;;;5008696;28;20187;-83
2022/11/20 02:50:05;;;;;;;11.47;7.00;;;-0.70;99.90;;;;;;4992852;28;20217;-84
2022/11/20 02:52:31;;;;;;;14.37;7.60;;;-0.70;99.90;;;;;;4992562;28;20615;-83
2022/11/20 02:54:57;;;;;;;11.37;7.20;;;-0.70;99.90;;;;;;5009163;28;20226;-83
2022/11/20 02:57:22;;;;;;;12.17;7.30;;;-0.70;99.90;;;;;;4992212;28;20562;-83
2022/11/20 02:59:48;;;;;;;10.73;7.23;;;-0.80;99.90;;;;;;4992575;28;20633;-83
2022/11/20 03:02:14;;;;;;;10.30;6.83;;;-0.80;99.90;;;;;;4992490;28;20254;-83
2022/11/20 03:04:39;;;;;;;10.67;6.77;;;-0.80;99.90;;;;;;4992571;28;20223;-83
2022/11/20 03:07:05;;;;;;;11.53;7.03;;;-0.80;99.90;;;;;;4994378;28;20176;-83
2022/11/20 03:09:31;;;;;;;10.43;6.63;;;-0.80;99.90;;;;;;4996310;28;20262;-83
2022/11/20 03:11:57;;;;;;;11.40;6.90;;;-0.80;99.90;;;;;;4996020;28;20279;-83
2022/11/20 03:14:22;;;;;;;10.33;6.80;;;-0.70;99.90;;;;;;4995417;28;20575;-83
2022/11/20 03:16:48;;;;;;;12.07;6.80;;;-0.70;99.90;;;;;;4995291;28;20282;-83
2022/11/20 03:19:14;;;;;;;12.70;6.67;;;-0.70;99.90;;;;;;4997152;28;20462;-83
2022/11/20 03:21:39;;;;;;;10.93;6.63;;;-0.80;99.90;;;;;;4995965;28;20187;-83
2022/11/20 03:24:06;;;;;;;11.23;6.57;;;-0.70;99.90;;;;;;4995732;28;20242;-83
2022/11/20 03:26:31;;;;;;;10.60;6.37;;;-0.80;99.90;;;;;;4996924;28;20191;-83
2022/11/20 03:29:00;;;;;;;10.47;6.77;;;-0.70;99.90;;;;;;4995690;28;20184;-83
2022/11/20 03:31:34;;;;;;;12.00;6.57;;;-0.70;99.90;;;;;;4994987;28;20573;-83
2022/11/20 03:34:02;;;;;;;8.93;5.83;;;-0.80;99.90;;;;;;4995425;28;20176;-83
2022/11/20 03:36:28;;;;;;;9.03;6.33;;;-0.80;99.90;;;;;;4995656;28;20183;-83
2022/11/20 03:38:55;;;;;;;12.00;7.03;;;-0.80;99.90;;;;;;4996936;28;20179;-83
2022/11/20 03:41:26;;;;;;;11.60;7.40;;;-0.80;99.90;;;;;;4995434;28;20516;-83
2022/11/20 03:43:54;;;;;;;13.73;7.10;;;-0.80;99.90;;;;;;4995227;28;20197;-82
2022/11/20 03:46:20;;;;;;;10.33;6.93;;;-0.80;99.90;;;;;;4995232;28;20242;-83
2022/11/20 03:48:46;;;;;;;11.20;6.70;;;-0.80;99.90;;;;;;5011704;28;20176;-83
2022/11/20 03:51:13;;;;;;;8.10;5.77;;;-0.80;99.90;;;;;;4995346;28;20280;-83
2022/11/20 03:53:40;;;;;;;10.37;6.53;;;-0.80;99.90;;;;;;4996406;28;20180;-83
2022/11/20 03:56:06;;;;;;;11.00;6.90;;;-0.80;99.90;;;;;;4995237;28;20270;-83
2022/11/20 03:58:35;;;;;;;10.93;6.73;;;-0.80;99.90;;;;;;4994946;28;20267;-83
2022/11/20 04:01:12;;;;;;;9.87;6.47;;;-0.80;99.90;;;;;;4994944;28;20168;-82
2022/11/20 04:03:40;;;;;;;9.83;6.13;;;-0.70;99.90;;;;;;4994838;28;20262;-83
2022/11/20 04:06:12;;;;;;;10.90;6.70;;;-0.80;99.90;;;;;;4994923;28;20211;-83
2022/11/20 04:08:38;;;;;;;11.20;6.50;;;-0.80;99.90;;;;;;4994794;28;20209;-83
2022/11/20 04:11:15;;;;;;;11.50;6.83;;;-0.70;99.90;;;;;;4994992;28;20210;-83
2022/11/20 04:13:45;;;;;;;10.47;6.70;;;-0.80;99.90;;;;;;4994894;28;20502;-83
2022/11/20 04:16:11;;;;;;;10.73;5.67;;;-0.80;99.90;;;;;;4994313;28;20255;-82
2022/11/20 04:18:37;;;;;;;12.17;6.67;;;-0.80;99.90;;;;;;4994786;28;20317;-83
2022/11/20 04:21:04;;;;;;;10.43;6.60;;;-0.80;99.90;;;;;;4994859;28;20634;-83
2022/11/20 04:23:30;;;;;;;12.20;6.47;;;-0.80;99.90;;;;;;4994300;28;20187;-82
2022/11/20 04:26:02;;;;;;;9.37;6.10;;;-0.80;99.90;;;;;;4994559;28;20180;-82
2022/11/20 04:28:28;;;;;;;8.87;5.97;;;-0.80;99.90;;;;;;4995762;28;20182;-83
2022/11/20 04:30:54;;;;;;;10.60;6.17;;;-0.70;99.90;;;;;;4994934;28;20229;-83
2022/11/20 04:33:19;;;;;;;7.90;5.73;;;-0.80;99.90;;;;;;4994285;28;20172;-82
2022/11/20 04:35:47;;;;;;;9.90;5.90;;;-0.80;99.90;;;;;;4995793;28;20168;-82
2022/11/20 04:38:13;;;;;;;9.70;5.80;;;-0.80;99.90;;;;;;5004358;28;20179;-82
2022/11/20 04:40:39;;;;;;;10.00;6.50;;;-0.80;99.90;;;;;;5013952;28;20577;-83
2022/11/20 04:43:04;;;;;;;9.77;6.27;;;-0.80;99.90;;;;;;5014029;28;20456;-83
2022/11/20 04:45:30;;;;;;;8.63;5.80;;;-0.80;99.90;;;;;;5013850;28;20214;-83
2022/11/20 04:47:56;;;;;;;10.17;6.73;;;-0.80;99.90;;;;;;5013591;28;20179;-84
2022/11/20 04:50:21;;;;;;;10.57;6.67;;;-0.80;99.90;;;;;;5013954;28;20227;-83
2022/11/20 04:52:47;;;;;;;8.83;5.97;;;-0.80;99.90;;;;;;5013669;28;20175;-82
2022/11/20 04:55:13;;;;;;;10.40;6.03;;;-0.80;99.90;;;;;;5013721;28;20182;-84
2022/11/20 04:57:38;;;;;;;10.83;6.40;;;-0.80;99.90;;;;;;5014036;28;20629;-83
2022/11/20 05:00:05;;;;;;;10.30;6.07;;;-0.80;99.90;;;;;;5013421;28;20187;-83
2022/11/20 05:02:31;;;;;;;9.90;6.10;;;-0.80;99.90;;;;;;5014480;28;20175;-84
2022/11/20 05:04:57;;;;;;;10.50;6.23;;;-0.70;99.90;;;;;;4996668;28;20323;-83
2022/11/20 05:07:23;;;;;;;9.23;6.00;;;-0.80;99.90;;;;;;4993677;28;20270;-83
2022/11/20 05:09:49;;;;;;;12.07;6.50;;;-0.80;99.90;;;;;;4993765;28;20190;-83
2022/11/20 05:12:14;;;;;;;10.30;6.40;;;-0.80;99.90;;;;;;4993703;28;20180;-83
2022/11/20 05:14:40;;;;;;;8.43;5.73;;;-0.80;99.90;;;;;;4993637;28;20191;-84
2022/11/20 05:17:06;;;;;;;9.67;6.20;;;-0.70;99.90;;;;;;4993220;28;20231;-83
2022/11/20 05:19:31;;;;;;;8.20;5.73;;;-0.70;99.90;;;;;;4993515;28;20172;-82
2022/11/20 05:21:57;;;;;;;9.60;6.00;;;-0.80;99.90;;;;;;5009846;28;20266;-81
2022/11/20 05:24:23;;;;;;;12.80;7.03;;;-0.70;99.90;;;;;;4993024;28;20286;-83
2022/11/20 05:26:48;;;;;;;11.50;6.57;;;-0.80;99.90;;;;;;4993578;28;20522;-82
2022/11/20 05:29:14;;;;;;;11.17;6.13;;;-0.90;99.90;;;;;;4993095;28;20279;-83
2022/11/20 05:31:40;;;;;;;9.37;6.13;;;-0.80;99.90;;;;;;5009627;28;20183;-83
2022/11/20 05:34:07;;;;;;;12.07;6.27;;;-0.80;99.90;;;;;;4993406;28;20190;-83
2022/11/20 05:36:32;;;;;;;10.17;6.50;;;-0.80;99.90;;;;;;4993143;28;20187;-83
2022/11/20 05:38:58;;;;;;;9.57;6.70;;;-0.80;99.90;;;;;;4993314;28;20183;-83
2022/11/20 05:41:24;;;;;;;10.67;6.80;;;-0.90;99.90;;;;;;4993197;28;20224;-82
2022/11/20 05:43:50;;;;;;;9.90;6.73;;;-0.80;99.90;;;;;;4992626;28;20207;-83
2022/11/20 05:46:19;;;;;;;9.57;6.40;;;-0.80;99.90;;;;;;4993302;28;20278;-83
2022/11/20 05:48:45;;;;;;;8.80;5.93;;;-0.80;99.90;;;;;;4994359;28;20259;-83
2022/11/20 05:51:14;;;;;;;9.47;6.57;;;-0.80;99.90;;;;;;4993144;28;20191;-83
2022/11/20 05:53:40;;;;;;;10.47;6.40;;;-0.80;99.90;;;;;;4989086;28;20184;-83
2022/11/20 05:56:12;;;;;;;9.13;6.23;;;-0.80;99.90;;;;;;4981280;28;20531;-82
2022/11/20 05:58:38;;;;;;;12.07;6.30;;;-0.80;99.90;;;;;;4983342;28;20592;-83
2022/11/20 06:01:04;;;;;;;10.93;6.10;;;-0.80;99.90;;;;;;4979488;28;20180;-85
2022/11/20 06:03:30;;;;;;;12.17;6.27;;;-0.80;99.90;;;;;;4973244;28;20184;-85
2022/11/20 06:05:56;;;;;;;11.00;6.40;;;-0.80;99.90;;;;;;4973831;28;20233;-84
2022/11/20 06:08:21;;;;;;;10.37;6.13;;;-0.80;99.90;;;;;;4984808;28;20180;-84
2022/11/20 06:10:47;;;;;;;10.60;6.40;;;-0.80;99.90;;;;;;4993183;28;20562;-84
2022/11/20 06:13:13;;;;;;;12.20;6.67;;;-0.80;99.90;;;;;;4981950;28;20604;-84
2022/11/20 06:15:38;;;;;;;10.17;6.57;;;-0.80;99.90;;;;;;4979980;28;20176;-85
2022/11/20 06:18:04;;;;;;;8.77;6.13;;;-0.80;99.90;;;;;;4973384;28;20200;-85
2022/11/20 06:20:30;;;;;;;13.47;6.07;;;-0.80;99.90;;;;;;4973610;28;20715;-85
2022/11/20 06:22:55;;;;;;;8.27;5.77;;;-0.80;99.90;;;;;;4973593;28;20212;-84
2022/11/20 06:25:21;;;;;;;9.57;5.60;;;-0.80;99.90;;;;;;4974993;28;20663;-85
2022/11/20 06:27:47;;;;;;;8.10;6.00;;;-0.80;99.90;;;;;;4973495;28;20184;-84
2022/11/20 06:30:14;;;;;;;8.27;5.50;;;-0.80;99.90;;;;;;4974000;28;20211;-85
2022/11/20 06:32:40;;;;;;;7.77;5.27;;;-0.80;99.90;;;;;;4975016;28;20169;-84
2022/11/20 06:35:06;;;;;;;7.53;5.47;;;-0.80;99.90;;;;;;4973506;28;20191;-85
2022/11/20 06:37:31;;;;;;;7.17;5.17;;;-0.80;99.90;;;;;;4983040;28;20215;-85
2022/11/20 06:39:57;;;;;;;9.60;5.57;;;-0.80;99.90;;;;;;4993067;28;20579;-85
2022/11/20 06:42:23;;;;;;;7.30;5.23;;;-0.70;99.90;;;;;;4992642;28;20169;-82
2022/11/20 06:44:48;;;;;;;8.53;5.80;;;-0.70;99.90;;;;;;4987835;28;20554;-84
2022/11/20 06:47:17;;;;;;;7.83;5.50;;;-0.70;99.90;;;;;;4985413;28;20606;-84
2022/11/20 06:49:43;;;;;;;8.47;5.70;;;-0.70;99.90;;;;;;4994106;28;20214;-83
2022/11/20 06:52:09;;;;;;;8.03;5.10;;;-0.70;99.90;;;;;;4989184;28;20207;-85
2022/11/20 06:54:34;;;;;;;9.10;4.87;;;-0.70;99.90;;;;;;4976864;28;20184;-85
2022/11/20 06:57:00;;;;;;;7.03;5.23;;;-0.70;99.90;;;;;;4976928;28;20176;-85
2022/11/20 06:59:26;;;;;;;8.20;5.17;;;-0.70;99.90;;;;;;4976704;28;20180;-85
2022/11/20 07:01:52;;;;;;;9.53;5.30;;;-0.70;99.90;;;;;;4976698;28;20243;-85
2022/11/20 07:04:17;;;;;;;7.03;5.20;;;-0.70;99.90;;;;;;4976679;28;20216;-85
2022/11/20 07:06:43;;;;;;;7.63;5.63;;;-0.70;99.90;;;;;;4976596;28;20283;-85
2022/11/20 07:09:09;;;;;;;8.83;5.33;;;-0.70;99.90;;;;;;4993452;28;20223;-85
2022/11/20 07:11:35;;;;;;;7.93;5.80;;;-0.70;99.90;;;;;;4996173;28;20210;-85
2022/11/20 07:14:01;;;;;;;7.73;5.43;;;-0.70;99.90;;;;;;4995863;28;20604;-85
2022/11/20 07:16:27;;;;;;;7.57;5.13;;;-0.70;99.90;;;;;;4995633;28;20227;-85
2022/11/20 07:18:52;;;;;;;9.10;5.67;;;-0.70;99.90;;;;;;4997114;28;20172;-85
2022/11/20 07:21:18;;;;;;;9.17;6.03;;;-0.60;99.90;;;;;;4996181;28;20190;-85
2022/11/20 07:23:44;;;;;;;8.93;5.47;;;-0.60;99.90;;;;;;4995889;28;20172;-85
2022/11/20 07:26:11;;;;;;;10.10;5.53;;;-0.60;99.90;;;;;;4995710;28;20269;-85
2022/11/20 07:28:36;;;;;;;8.50;5.47;;;-0.60;99.90;;;;;;4995777;28;20180;-85
2022/11/20 07:31:04;;;;;;;8.40;5.87;;;-0.60;99.90;;;;;;4995765;28;20188;-85
2022/11/20 07:33:30;;;;;;;8.77;6.00;;;-0.60;99.90;;;;;;4995489;28;20174;-85
2022/11/20 07:35:58;;;;;;;9.30;5.47;;;-0.60;99.90;;;;;;4987838;28;20227;-84
2022/11/20 07:38:23;;;;;;;9.60;5.63;;;-0.50;99.90;;;;;;4989079;28;20187;-85
2022/11/20 07:40:54;;;;;;;9.40;6.13;;;-0.50;99.90;;;;;;4984739;28;20230;-84
2022/11/20 07:43:20;;;;;;;9.83;5.37;;;-0.50;99.90;;;;;;4984623;28;20176;-85
2022/11/20 07:45:45;;;;;;;9.67;5.93;;;-0.50;99.90;;;;;;4996067;28;20665;-85
2022/11/20 07:48:11;;;;;;;10.23;6.07;;;-0.50;99.90;;;;;;4996417;28;20180;-85
2022/11/20 07:50:37;;;;;;;9.50;6.77;;;-0.50;99.90;;;;;;4995666;28;20641;-85
2022/11/20 07:53:06;;;;;;;9.90;6.10;;;-0.50;99.90;;;;;;4995204;28;20511;-86
2022/11/20 07:55:32;;;;;;;10.03;6.17;;;-0.40;99.90;;;;;;4995153;28;20531;-85
2022/11/20 07:57:58;;;;;;;9.50;5.93;;;-0.50;99.90;;;;;;4995275;28;20176;-85
2022/11/20 08:00:26;;;;;;;8.40;5.67;;;-0.40;99.90;;;;;;4994443;28;20594;-84
2022/11/20 08:02:51;;;;;;;10.20;5.80;;;-0.40;99.90;;;;;;4994982;28;20208;-85
2022/11/20 08:05:17;;;;;;;11.03;6.00;;;-0.40;99.90;;;;;;4996527;28;20203;-84
2022/11/20 08:07:44;;;;;;;9.60;6.43;;;-0.40;99.90;;;;;;4995090;28;20188;-84
2022/11/20 08:10:12;;;;;;;8.40;5.97;;;-0.40;99.90;;;;;;4995217;28;20184;-85
2022/11/20 08:15:33;;;;;;;9.53;6.53;;;-0.40;99.90;;;;;;4996494;28;20171;-86
2022/11/20 08:18:04;;;;;;;10.80;6.13;;;-0.40;99.90;;;;;;4994421;28;20238;-84
2022/11/20 08:20:30;;;;;;;10.07;6.13;;;-0.40;99.90;;;;;;4994927;28;20180;-84
2022/11/20 08:23:00;;;;;;;8.40;5.70;;;-0.40;99.90;;;;;;5011246;28;20231;-85
2022/11/20 08:25:27;;;;;;;8.33;5.87;;;-0.40;99.90;;;;;;5011045;28;20227;-85
2022/11/20 08:27:53;;;;;;;7.83;5.67;;;-0.40;99.90;;;;;;4994630;28;20184;-84
2022/11/20 08:30:19;;;;;;;8.33;5.67;;;-0.30;99.90;;;;;;4994644;28;20622;-85
2022/11/20 08:32:45;;;;;;;10.10;5.80;;;-0.30;99.90;;;;;;4994667;28;20192;-85
2022/11/20 08:35:10;;;;;;;9.67;5.83;;;-0.30;99.90;;;;;;4996007;28;20522;-85
2022/11/20 08:37:38;;;;;;;9.23;5.70;;;-0.30;99.90;;;;;;4994589;28;20188;-84
2022/11/20 08:40:04;;;;;;;8.60;5.90;;;-0.30;99.90;;;;;;4994556;28;20206;-84
2022/11/20 08:42:30;;;;;;;7.70;5.50;;;-0.30;99.90;;;;;;4994375;28;20172;-83
2022/11/20 08:44:56;;;;;;;8.93;5.77;;;-0.30;99.90;;;;;;4994341;28;20211;-84
2022/11/20 08:47:24;;;;;;;7.70;5.73;;;-0.20;99.90;;;;;;4994059;28;20512;-84
2022/11/20 08:49:50;;;;;;;8.50;5.80;;;-0.20;99.90;;;;;;5010650;28;20176;-85
2022/11/20 08:52:16;;;;;;;9.60;5.70;;;-0.20;99.90;;;;;;4994183;28;20183;-84
2022/11/20 08:54:41;;;;;;;8.93;6.03;;;-0.20;99.90;;;;;;4994080;28;20509;-84
2022/11/20 08:57:07;;;;;;;9.23;5.73;;;-0.20;99.90;;;;;;4993887;28;20507;-84
2022/11/20 08:59:33;;;;;;;9.93;6.17;;;-0.20;99.90;;;;;;4994046;28;20204;-84
2022/11/20 09:01:58;;;;;;;9.17;6.20;;;-0.20;99.90;;;;;;4995188;28;20171;-85
2022/11/20 09:04:24;;;;;;;9.87;6.37;;;-0.10;99.90;;;;;;4993245;28;20223;-85
2022/11/20 09:06:51;;;;;;;9.63;6.37;;;-0.10;99.90;;;;;;5010319;28;20183;-83
2022/11/20 09:09:18;;;;;;;7.57;5.53;;;0.00;99.90;;;;;;4993839;28;20219;-85
2022/11/20 09:11:44;;;;;;;8.83;6.00;;;-0.10;99.90;;;;;;4994103;28;20175;-83
2022/11/20 09:14:09;;;;;;;8.63;5.37;;;0.00;99.90;;;;;;4993907;28;20180;-84
2022/11/20 09:16:35;;;;;;;9.40;5.97;;;0.00;99.90;;;;;;4993681;28;20230;-85
2022/11/20 09:19:01;;;;;;;8.60;5.97;;;0.00;99.90;;;;;;4994100;28;20180;-84
2022/11/20 09:21:27;;;;;;;8.03;5.73;;;0.10;99.90;;;;;;4984710;28;20524;-84
2022/11/20 09:23:52;;;;;;;7.60;5.30;;;0.20;99.90;;;;;;4977023;28;20172;-84
2022/11/20 09:26:19;;;;;;;9.60;6.13;;;0.30;99.90;;;;;;4984197;28;20817;-83
2022/11/20 09:28:44;;;;;;;8.17;5.50;;;0.40;99.90;;;;;;4971520;28;20187;-84
2022/11/20 09:31:25;;;;;;;8.10;5.37;;;0.40;99.90;;;;;;4988297;28;20194;-84
2022/11/20 09:33:51;;;;;;;9.07;6.33;;;0.40;99.90;;;;;;4997016;28;20183;-84
2022/11/20 09:36:18;;;;;;;7.73;5.60;;;0.40;99.90;;;;;;4983166;28;20188;-84
2022/11/20 09:38:47;;;;;;;8.90;5.90;;;0.40;99.90;;;;;;5001831;28;20188;-84
2022/11/20 09:41:38;;;;;;;7.83;5.50;;;0.40;99.90;;;;;;5002582;28;20191;-84
2022/11/20 09:44:07;;;;;;;8.10;5.47;;;0.40;99.90;;;;;;4992206;28;20325;-82
2022/11/20 09:46:47;;;;;;;8.90;4.90;;;0.30;99.90;;;;;;5000079;28;20183;-84
2022/11/20 09:49:31;;;;;;;8.80;5.83;;;0.30;99.90;;;;;;5003174;28;20179;-84
2022/11/20 09:52:11;;;;;;;8.77;5.87;;;0.30;99.90;;;;;;5004273;28;20194;-84
2022/11/20 09:54:40;;;;;;;9.40;5.87;;;0.40;99.90;;;;;;5004257;28;20186;-83
2022/11/20 09:57:18;;;;;;;8.53;5.40;;;0.40;99.90;;;;;;4988933;28;20199;-83
2022/11/20 09:59:54;;;;;;;8.40;5.63;;;0.40;99.90;;;;;;4998968;28;20182;-84
2022/11/20 10:02:24;;;;;;;9.50;5.73;;;0.50;99.90;;;;;;4994354;28;20186;-84
2022/11/20 10:05:19;;;;;;;10.47;5.80;;;0.50;99.90;;;;;;4991102;28;20204;-84
2022/11/20 10:08:21;;;;;;;11.50;5.93;;;0.50;99.90;;;;;;4993363;28;20655;-82
2022/11/20 10:11:13;;;;;;;10.37;5.47;;;0.50;99.90;;;;;;4996383;28;20182;-82
2022/11/20 10:13:51;;;;;;;9.63;6.13;;;0.40;99.90;;;;;;5000525;28;20270;-84
2022/11/20 10:16:54;;;;;;;7.40;5.53;;;0.40;99.90;;;;;;4999641;28;20227;-85
2022/11/20 10:19:35;;;;;;;8.13;5.43;;;0.40;99.90;;;;;;5001395;28;20270;-84
2022/11/20 10:22:08;;;;;;;8.67;5.77;;;0.50;99.90;;;;;;5006585;28;20178;-84
2022/11/20 10:24:56;;;;;;;8.70;5.87;;;0.50;99.90;;;;;;5002837;28;20540;-84
2022/11/20 10:27:32;;;;;;;9.07;6.00;;;0.50;99.90;;;;;;5001941;28;20193;-84
2022/11/20 10:30:05;;;;;;;7.80;5.53;;;0.60;99.90;;;;;;5008448;28;20618;-85
2022/11/20 10:32:40;;;;;;;9.60;5.60;;;0.60;99.90;;;;;;5006698;28;20274;-84
2022/11/20 10:35:34;;;;;;;8.10;5.53;;;0.70;99.90;;;;;;5000795;28;20191;-85
2022/11/20 10:38:05;;;;;;;8.73;5.57;;;0.80;99.90;;;;;;4992525;28;20287;-85
2022/11/20 10:40:34;;;;;;;9.77;5.90;;;0.80;99.90;;;;;;4999294;28;20187;-86
2022/11/20 10:43:01;;;;;;;9.77;5.77;;;0.90;99.90;;;;;;5008404;28;20556;-84
2022/11/20 10:45:40;;;;;;;10.00;5.70;;;0.80;99.90;;;;;;5006021;28;20218;-85
2022/11/20 10:48:16;;;;;;;8.40;5.53;;;0.80;99.90;;;;;;5006224;28;20228;-84
2022/11/20 10:51:17;;;;;;;10.20;5.63;;;0.90;99.90;;;;;;5010764;28;20189;-83
2022/11/20 10:54:12;;;;;;;8.20;5.37;;;0.90;99.90;;;;;;5001087;28;20201;-84
2022/11/20 10:56:51;;;;;;;8.87;5.90;;;0.90;99.90;;;;;;4994365;28;20199;-82
2022/11/20 10:59:58;;;;;;;8.87;5.40;;;0.80;99.90;;;;;;5004307;28;20179;-84
2022/11/20 11:02:33;;;;;;;8.53;5.50;;;0.90;99.90;;;;;;5007277;28;20166;-84
2022/11/20 11:05:10;;;;;;;10.07;6.13;;;0.90;99.90;;;;;;4998193;28;20225;-83
2022/11/20 11:07:39;;;;;;;10.57;5.57;;;1.00;99.90;;;;;;5000782;28;20179;-84
2022/11/20 11:10:16;;;;;;;12.20;5.47;;;1.00;99.90;;;;;;5006307;28;20201;-83
2022/11/20 11:12:47;;;;;;;9.57;5.20;;;1.10;99.90;;;;;;5003878;28;20188;-83
2022/11/20 11:15:40;;;;;;;9.97;5.40;;;1.20;99.90;;;;;;5002614;28;20606;-83
2022/11/20 11:18:10;;;;;;;8.17;5.57;;;1.20;99.90;;;;;;5004048;28;20225;-82
2022/11/20 11:20:36;;;;;;;7.13;4.97;;;1.20;99.90;;;;;;4999756;28;20491;-82
2022/11/20 11:23:04;;;;;;;9.43;5.63;;;1.20;99.90;;;;;;4996948;28;20283;-83
2022/11/20 11:25:36;;;;;;;7.70;4.97;;;1.30;99.90;;;;;;4998445;28;20239;-83
2022/11/20 11:28:19;;;;;;;7.20;5.33;;;1.30;99.90;;;;;;5003860;28;20229;-83
2022/11/20 11:30:46;;;;;;;7.90;5.17;;;1.30;99.90;;;;;;4998152;28;20188;-83
2022/11/20 11:33:35;;;;;;;7.87;5.60;;;1.30;99.90;;;;;;4990355;28;20191;-83
2022/11/20 11:36:21;;;;;;;9.47;5.73;;;1.30;99.90;;;;;;4999627;28;20207;-83
2022/11/20 11:38:52;;;;;;;10.00;5.63;;;1.30;99.90;;;;;;4997915;28;20645;-82
2022/11/20 11:41:23;;;;;;;8.63;5.50;;;1.40;99.90;;;;;;4999489;28;20496;-82
2022/11/20 11:46:53;;;;;;;6.57;5.00;;;1.30;99.90;;;;;;4989815;28;20253;-81
2022/11/20 11:49:20;;;;;;;8.57;4.67;;;1.30;99.90;;;;;;4997933;28;20179;-83
2022/11/20 11:52:03;;;;;;;7.10;4.77;;;1.30;99.90;;;;;;4991775;28;20193;-82
2022/11/20 11:54:41;;;;;;;6.67;4.50;;;1.20;99.90;;;;;;4997468;28;20187;-83
2022/11/20 11:57:42;;;;;;;10.77;5.23;;;1.20;99.90;;;;;;4987377;28;20466;-82
2022/11/20 12:00:29;;;;;;;7.63;5.83;;;1.10;99.90;;;;;;4983150;28;20180;-82
2022/11/20 12:03:17;;;;;;;8.83;5.70;;;1.00;99.90;;;;;;4994163;28;20194;-83
2022/11/20 12:06:01;;;;;;;8.23;5.27;;;0.90;99.90;;;;;;4984219;28;20203;-82
2022/11/20 12:08:38;;;;;;;9.43;6.57;;;0.90;99.90;;;;;;4979907;28;20253;-83
2022/11/20 12:11:12;;;;;;;7.43;5.20;;;0.80;99.90;;;;;;5000446;28;20206;-83
2022/11/20 12:13:52;;;;;;;7.60;5.07;;;0.70;99.90;;;;;;5019668;28;20201;-84
2022/11/20 12:16:20;;;;;;;8.90;5.90;;;0.70;99.90;;;;;;5009732;28;20563;-83
2022/11/20 12:18:52;;;;;;;8.07;5.43;;;0.60;99.90;;;;;;5006473;28;20187;-84
2022/11/20 12:21:38;;;;;;;9.13;5.93;;;0.70;99.90;;;;;;5004468;28;20533;-84
2022/11/20 12:24:58;;;;;;;9.83;6.30;;;0.70;99.90;;;;;;5002935;28;20266;-82
2022/11/20 12:27:32;;;;;;;10.43;6.30;;;0.70;99.90;;;;;;4917786;29;20657;-83
2022/11/20 12:30:09;;;;;;;8.57;6.00;;;0.80;99.90;;;;;;4997147;28;20197;-83
2022/11/20 12:32:53;;;;;;;8.93;5.97;;;0.80;99.90;;;;;;4995868;28;20187;-83
2022/11/20 12:35:37;;;;;;;8.90;5.90;;;0.80;99.90;;;;;;5000877;28;20187;-83
2022/11/20 12:38:40;;;;;;;8.40;5.90;;;0.80;99.90;;;;;;5002533;28;20202;-83
2022/11/20 12:45:09;;;;;;;8.83;5.97;;;0.80;99.90;;;;;;4997890;28;20195;-83
2022/11/20 12:47:51;;;;;;;8.43;6.27;;;0.90;99.90;;;;;;4998982;28;20533;-83
2022/11/20 12:50:23;;;;;;;10.63;6.63;;;0.90;99.90;;;;;;4974273;28;20210;-83
2022/11/20 12:52:59;;;;;;;8.40;6.23;;;1.00;99.90;;;;;;5000117;28;20258;-83
2022/11/20 12:55:28;;;;;;;8.80;6.13;;;1.00;99.90;;;;;;5003001;28;20653;-83
2022/11/20 12:58:17;;;;;;;8.90;5.80;;;1.00;99.90;;;;;;4999740;28;20193;-82
2022/11/20 13:01:39;;;;;;;8.93;5.70;;;1.00;99.90;;;;;;4996911;28;20682;-82
2022/11/20 13:04:24;;;;;;;9.57;6.03;;;0.90;99.90;;;;;;4988063;28;20196;-83
2022/11/20 13:06:50;;;;;;;8.60;5.97;;;0.90;99.90;;;;;;5001957;28;20665;-83
2022/11/20 13:09:21;;;;;;;9.90;5.90;;;1.00;99.90;;;;;;5003558;28;20187;-84
2022/11/20 13:12:02;;;;;;;10.20;6.67;;;1.10;99.90;;;;;;5001608;28;20180;-84
2022/11/20 13:14:40;;;;;;;7.53;5.57;;;1.10;99.90;;;;;;4993257;28;20618;-84
2022/11/20 13:17:15;;;;;;;9.13;6.00;;;1.10;99.90;;;;;;4997770;28;20266;-84